Terminal Aerodrome Forecast
Issued by NWS

Home | Current Version | Previous Version | Text Only | Print | Product List | Glossary On
Versions: 1 2 3 4 5 6 7 8 9 10 11 12 13 14 15 16 17 18 19 20 21 22
000
FTUS42 KFFC 080347 AAA
TAFFTY
TAF AMD
KFTY 080347Z 0804/0824 29007KT P6SM BKN040
     FM080700 31007KT P6SM BKN025
     FM080900 31007KT P6SM BKN015
     FM081400 32010KT P6SM SCT030 BKN150
     FM081600 33012G20KT P6SM SCT050 BKN120
     FM082300 34010KT P6SM SCT080=

USA.gov is the U.S. government's official web portal to all federal, state and local government web resources and services.